This is the latest recevied weather packets stored in our database for station/object EA6AMI-5. If no packets are shown the sender has not sent any weather packets the latest 10 day(s).
| Time | Temp. | Humidity | Pressure | Rain* | Wind** | Luminosity | Snow |
|---|---|---|---|---|---|---|---|
| 1787828044 | 30° C | 62% | 1014 hPa | 0 mm | - | 211 W/m² | - |
| 1787827504 | 29.44° C | 61% | 1014.2 hPa | 0 mm | - | 611 W/m² | - |
| 1787826963 | 30° C | 60% | 1014.2 hPa | 0 mm | - | 357 W/m² | - |
| 1787826423 | 30° C | 62% | 1014.1 hPa | 0 mm | - | 335 W/m² | - |
| 1787825883 | 29.44° C | 63% | 1014.2 hPa | 0 mm | - | 459 W/m² | - |
| 1787825344 | 28.89° C | 65% | 1014.1 hPa | 0 mm | - | 404 W/m² | - |
| 1787824804 | 28.89° C | 67% | 1014 hPa | 0 mm | - | 385 W/m² | - |
| 1787824444 | 28.89° C | 68% | 1014 hPa | 0 mm | - | 280 W/m² | - |
| 1787823903 | 29.44° C | 66% | 1014 hPa | 0 mm | - | 177 W/m² | - |
| 1787823364 | 28.89° C | 65% | 1014 hPa | 0 mm | - | 374 W/m² | - |
| 1787822823 | 29.44° C | 66% | 1013.7 hPa | 0 mm | - | 190 W/m² | - |
| 1787822283 | 28.89° C | 68% | 1013.9 hPa | 0 mm | - | 360 W/m² | - |
| 1787821744 | 28.33° C | 69% | 1014 hPa | 0 mm | - | 329 W/m² | - |
| 1787821203 | 28.33° C | 70% | 1013.9 hPa | 0 mm | - | 323 W/m² | - |
| 1787820843 | 27.78° C | 71% | 1013.9 hPa | 0 mm | - | 317 W/m² | - |
| 1787820303 | 28.33° C | 71% | 1014 hPa | 0 mm | - | 334 W/m² | - |
| 1787819764 | 27.78° C | 73% | 1014 hPa | 0 mm | - | 274 W/m² | - |
| 1787819223 | 27.78° C | 75% | 1014.2 hPa | 0 mm | - | 310 W/m² | - |
| 1787818683 | 27.78° C | 76% | 1014.4 hPa | 0 mm | - | 177 W/m² | - |
| 1787818143 | 27.78° C | 76% | 1014.1 hPa | 0 mm | - | 203 W/m² | - |
| 1787817603 | 27.78° C | 77% | 1013.9 hPa | 0 mm | - | 149 W/m² | - |
| 1787817243 | 27.22° C | 78% | 1014.2 hPa | 0 mm | - | 185 W/m² | - |
| 1787816706 | 27.22° C | 79% | 1014.1 hPa | 0 mm | - | 165 W/m² | - |
| 1787816163 | 27.22° C | 78% | 1014.2 hPa | 0 mm | - | 146 W/m² | - |
| 1787815624 | 26.67° C | 79% | 1014 hPa | 0 mm | - | 126 W/m² | - |
* Rain latest hour (hover to see other rain measurements)
** Current wind speed in m/s (hover to see current wind gust speed)